Terminal Aerodrome Forecast
Issued by NWS Sterling, VA

Current Version | Previous Version | Graphics & Text | Print | Product List | Glossary On
Versions: 1 2 3 4 5 6 7 8 9 10 11 12 13 14 15 16 17 18 19 20 21 22 23 24 25 26 27 28 29 30 31 32 33
814
FTUS41 KLWX 222335
TAFDCA
TAF
KDCA 222335Z 2300/2324 27006KT P6SM BKN060
     FM230300 24006KT 5SM SHRA VCTS OVC060CB
     FM230600 24006KT P6SM VCTS BKN060CB
     FM231100 26006KT P6SM BKN200
     FM232300 22007KT P6SM BKN050=

USA.gov is the U.S. government's official web portal to all federal, state and local government web resources and services.